EmailTwitter


Observations de surface / Québec / CYUL (71627)

Régions: Québec | Canada | États-Unis | Europe | France | UK | Ailleurs
Station
Affichage
Infos & localisation pour CYUL (71627) | Aide pour décoder les METARs

Observations prises le 2017-08-23 à 09H00 UTC à MONTREAL INTL A, QB (CYUL)

Etat du ciel: partiellement nuageux.

Température: 18.0 Celsius

Point de rosée: 15.0 Celsius

Humidité relative: 83%

Indice Humidex: 22.

Vents: Sud-ouest à 30 km/h ou 16 noeuds.

Rafale du vent: 43 km/h ou 23 noeuds.

Pression au niveau moyen de la mer: 100.31 kilopascals.

Calage altimétrique: 100.30 kilopascals ou 29.62 pouces de mercure.

Visibilité horizontale: 15.00 milles terrestres ou 24.00 kilomètres.

Hauteur du plafond: 457 mètres ( 1500 pieds ).

Observation METAR:

CYUL 230900Z 24016G23KT 15SM BKN015 18/15 A2962 RMK SC6 SLP031 DENSITY ALT

900FT=